createdAt,value
2023-04-29T00:00:01.836Z,6.10
2023-04-29T00:02:23.443Z,6.93
2023-04-29T00:04:45.151Z,6.93
2023-04-29T00:07:08.424Z,6.70
2023-04-29T00:09:29.861Z,6.80
2023-04-29T00:11:51.767Z,6.90
2023-04-29T00:14:13.766Z,7.00
2023-04-29T00:16:35.428Z,7.00
2023-04-29T00:18:56.916Z,7.63
2023-04-29T00:21:18.428Z,7.50
2023-04-29T00:23:39.891Z,6.93
2023-04-29T00:26:01.482Z,7.80
2023-04-29T00:28:22.958Z,7.17
2023-04-29T00:30:44.452Z,7.53
2023-04-29T00:33:05.897Z,7.23
2023-04-29T00:35:27.372Z,7.93
2023-04-29T00:37:48.871Z,7.10
2023-04-29T00:40:10.727Z,7.53
2023-04-29T00:42:33.930Z,7.27
2023-04-29T00:44:55.904Z,7.37
2023-04-29T00:47:17.437Z,7.63
2023-04-29T00:49:39.824Z,7.27
2023-04-29T00:52:02.077Z,8.50
2023-04-29T00:54:24.003Z,8.17
2023-04-29T00:56:46.458Z,8.33
2023-04-29T00:59:10.177Z,7.67
2023-04-29T01:01:32.574Z,7.73
2023-04-29T01:03:55.034Z,7.50
2023-04-29T01:06:38.353Z,6.93
2023-04-29T01:09:33.945Z,7.77
2023-04-29T01:12:08.335Z,7.60
2023-04-29T01:14:33.024Z,7.30
2023-04-29T01:17:00.382Z,6.07
2023-04-29T01:19:47.432Z,5.83
2023-04-29T01:22:08.867Z,7.57
2023-04-29T01:24:30.359Z,7.07
2023-04-29T01:27:02.617Z,8.10
2023-04-29T01:29:40.152Z,7.07
2023-04-29T01:32:09.101Z,9.00
2023-04-29T01:34:54.390Z,8.07
2023-04-29T01:37:22.429Z,8.93
2023-04-29T01:40:09.473Z,8.73
2023-04-29T01:42:44.278Z,8.20
2023-04-29T01:45:08.621Z,8.67
2023-04-29T01:47:30.821Z,8.63
2023-04-29T01:49:52.683Z,9.47
2023-04-29T01:52:14.350Z,8.43
2023-04-29T01:54:38.767Z,8.47
2023-04-29T01:57:00.665Z,9.63
2023-04-29T01:59:22.077Z,8.83
2023-04-29T02:01:43.894Z,9.87
2023-04-29T02:04:05.512Z,10.20
2023-04-29T02:06:28.096Z,9.67
2023-04-29T02:08:49.674Z,9.27
2023-04-29T02:11:11.099Z,11.13
2023-04-29T02:13:32.577Z,10.83
2023-04-29T02:15:54.133Z,11.63
2023-04-29T02:18:16.230Z,11.57
2023-04-29T02:20:37.716Z,11.83
2023-04-29T02:22:59.145Z,12.40
2023-04-29T02:25:21.031Z,12.10
2023-04-29T02:27:42.484Z,11.90
2023-04-29T02:30:04.878Z,12.53
2023-04-29T02:32:26.296Z,12.33
2023-04-29T02:34:47.788Z,12.23
2023-04-29T02:37:09.235Z,13.10
2023-04-29T02:39:30.834Z,13.33
2023-04-29T02:41:55.701Z,13.60
2023-04-29T02:44:17.202Z,14.20
2023-04-29T02:46:40.869Z,14.70
2023-04-29T02:49:02.804Z,15.07
2023-04-29T02:51:24.634Z,14.13
2023-04-29T02:53:46.100Z,14.77
2023-04-29T02:56:07.763Z,15.40
2023-04-29T02:58:29.215Z,14.57
2023-04-29T03:00:50.985Z,14.90
2023-04-29T03:03:12.734Z,14.53
2023-04-29T03:05:35.362Z,15.60
2023-04-29T03:07:56.824Z,14.43
2023-04-29T03:10:19.154Z,14.67
2023-04-29T03:12:40.937Z,14.73
2023-04-29T03:15:02.403Z,15.90
2023-04-29T03:17:24.032Z,15.40
2023-04-29T03:19:45.519Z,15.10
2023-04-29T03:22:08.314Z,16.70
2023-04-29T03:24:29.826Z,16.53
2023-04-29T03:26:51.252Z,17.97
2023-04-29T03:29:12.721Z,16.53
2023-04-29T03:31:34.619Z,16.33
2023-04-29T03:33:56.148Z,16.47
2023-04-29T03:36:17.657Z,17.07
2023-04-29T03:38:39.173Z,17.70
2023-04-29T03:41:00.872Z,17.27
2023-04-29T03:43:22.400Z,17.60
2023-04-29T03:45:43.835Z,19.07
2023-04-29T03:48:06.110Z,17.73
2023-04-29T03:50:27.631Z,18.57
2023-04-29T03:52:49.404Z,17.97
2023-04-29T03:55:11.689Z,17.17
2023-04-29T03:57:33.183Z,17.67
2023-04-29T03:59:54.795Z,16.23
2023-04-29T04:02:17.167Z,16.17
2023-04-29T04:04:39.032Z,15.20
2023-04-29T04:07:00.969Z,15.73
2023-04-29T04:09:22.407Z,16.10
2023-04-29T04:11:44.435Z,14.70
2023-04-29T04:14:06.541Z,15.10
2023-04-29T04:16:28.156Z,13.30
2023-04-29T04:18:49.612Z,13.17
2023-04-29T04:21:12.661Z,12.47
2023-04-29T04:23:34.429Z,11.40
2023-04-29T04:25:55.873Z,12.67
2023-04-29T04:28:17.362Z,12.60
2023-04-29T04:30:38.780Z,12.13
2023-04-29T04:33:00.307Z,13.33
2023-04-29T04:35:22.066Z,13.27
2023-04-29T04:37:43.503Z,13.87
2023-04-29T04:40:05.581Z,14.37
2023-04-29T04:42:27.033Z,13.60
2023-04-29T04:44:48.463Z,14.40
2023-04-29T04:47:11.581Z,15.67
2023-04-29T04:49:33.106Z,15.73
2023-04-29T04:51:54.573Z,13.97
2023-04-29T04:54:16.012Z,12.20
2023-04-29T04:56:37.910Z,10.27
2023-04-29T04:58:59.359Z,11.73
2023-04-29T05:01:21.377Z,11.70
2023-04-29T05:03:43.107Z,12.30
2023-04-29T05:06:04.729Z,11.07
2023-04-29T05:08:26.820Z,8.90
2023-04-29T05:10:48.456Z,9.60
2023-04-29T05:13:09.884Z,8.87
2023-04-29T05:15:31.413Z,9.43
2023-04-29T05:17:53.104Z,8.90
2023-04-29T05:20:14.702Z,8.67
2023-04-29T05:22:36.157Z,9.03
2023-04-29T05:25:02.940Z,9.13
2023-04-29T05:27:24.383Z,9.03
2023-04-29T05:29:45.821Z,9.83
2023-04-29T05:32:07.442Z,11.07
2023-04-29T05:34:28.906Z,11.33
2023-04-29T05:36:50.344Z,11.37
2023-04-29T05:39:11.876Z,12.13
2023-04-29T05:41:33.417Z,11.93
2023-04-29T05:43:54.934Z,12.33
2023-04-29T05:46:16.764Z,13.40
2023-04-29T05:48:38.899Z,13.20
2023-04-29T05:51:00.435Z,13.57
2023-04-29T05:53:21.921Z,13.20
2023-04-29T05:55:45.249Z,13.30
2023-04-29T05:58:06.724Z,12.80
2023-04-29T06:00:28.259Z,12.40
2023-04-29T06:02:58.029Z,11.30
2023-04-29T06:05:20.737Z,11.23
2023-04-29T06:07:43.975Z,11.60
2023-04-29T06:10:06.014Z,11.90
2023-04-29T06:12:27.494Z,12.10
2023-04-29T06:14:49.022Z,12.47
2023-04-29T06:17:12.371Z,13.30
2023-04-29T06:19:34.150Z,11.80
2023-04-29T06:21:55.741Z,12.73
2023-04-29T06:24:17.229Z,11.13
2023-04-29T06:26:38.660Z,12.40
2023-04-29T06:29:00.149Z,11.60
2023-04-29T06:31:23.048Z,11.33
2023-04-29T06:33:44.707Z,11.43
2023-04-29T06:36:06.358Z,11.70
2023-04-29T06:38:27.763Z,10.20
2023-04-29T06:40:49.260Z,10.00
2023-04-29T06:43:10.697Z,8.80
2023-04-29T06:45:32.294Z,8.17
2023-04-29T06:47:53.910Z,7.90
2023-04-29T06:50:15.394Z,8.60
2023-04-29T06:52:36.864Z,7.80
2023-04-29T06:54:58.692Z,7.83
2023-04-29T06:57:20.811Z,8.13
2023-04-29T06:59:42.377Z,6.43
2023-04-29T07:02:03.818Z,6.60
2023-04-29T07:04:25.321Z,8.07
2023-04-29T07:06:47.232Z,6.73
2023-04-29T07:09:09.156Z,6.93
2023-04-29T07:11:30.751Z,6.57
2023-04-29T07:13:55.428Z,6.57
2023-04-29T07:16:22.036Z,7.30
2023-04-29T07:18:43.965Z,6.80
2023-04-29T07:21:05.408Z,6.07
2023-04-29T07:23:26.973Z,6.00
2023-04-29T07:25:48.440Z,6.90
2023-04-29T07:28:09.952Z,7.07
2023-04-29T07:30:31.543Z,4.73
2023-04-29T07:32:52.974Z,5.23
2023-04-29T07:35:14.827Z,5.17
2023-04-29T07:37:36.350Z,4.67
2023-04-29T07:39:57.855Z,3.70
2023-04-29T07:42:19.278Z,5.60
2023-04-29T07:44:41.035Z,3.20
2023-04-29T07:47:02.480Z,2.73
2023-04-29T07:49:23.935Z,2.90
2023-04-29T07:51:45.445Z,3.13
2023-04-29T07:54:07.264Z,3.15
2023-04-29T07:56:28.694Z,3.00
2023-04-29T07:58:50.187Z,2.95
2023-04-29T08:01:12.273Z,3.15
2023-04-29T08:03:34.130Z,3.75
2023-04-29T08:06:00.630Z,3.80
2023-04-29T08:08:22.075Z,3.65
2023-04-29T08:10:44.052Z,4.18
2023-04-29T08:13:05.496Z,3.90
2023-04-29T08:15:27.004Z,4.28
2023-04-29T08:17:48.472Z,4.07
2023-04-29T08:20:10.346Z,3.90
2023-04-29T08:22:31.839Z,4.13
2023-04-29T08:24:53.427Z,4.60
2023-04-29T08:27:15.518Z,3.78
2023-04-29T08:29:37.341Z,3.63
2023-04-29T08:31:58.928Z,3.53
2023-04-29T08:34:20.464Z,4.35
2023-04-29T08:36:41.985Z,4.28
2023-04-29T08:39:03.491Z,4.20
2023-04-29T08:41:25.682Z,4.28
2023-04-29T08:43:47.199Z,5.10
2023-04-29T08:46:09.792Z,5.13
2023-04-29T08:48:31.747Z,5.63
2023-04-29T08:50:53.269Z,5.30
2023-04-29T08:53:15.282Z,5.93
2023-04-29T08:55:41.643Z,5.93
2023-04-29T08:58:03.625Z,5.72
2023-04-29T09:00:25.231Z,6.03
2023-04-29T09:02:51.599Z,5.20
2023-04-29T09:05:13.198Z,5.32
2023-04-29T09:07:35.841Z,5.53
2023-04-29T09:09:59.062Z,5.55
2023-04-29T09:12:21.098Z,5.18
2023-04-29T09:14:42.635Z,5.63
2023-04-29T09:17:04.125Z,4.82
2023-04-29T09:19:31.947Z,5.13
2023-04-29T09:21:57.303Z,5.35
2023-04-29T09:24:26.438Z,4.80
2023-04-29T09:26:48.847Z,5.28
2023-04-29T09:29:18.362Z,5.05
2023-04-29T09:31:40.605Z,4.88
2023-04-29T09:34:02.241Z,4.53
2023-04-29T09:36:38.677Z,4.65
2023-04-29T09:39:00.081Z,4.10
2023-04-29T09:41:22.090Z,4.40
2023-04-29T09:43:43.527Z,4.88
2023-04-29T09:46:05.052Z,4.78
2023-04-29T09:48:32.501Z,5.20
2023-04-29T09:51:02.235Z,5.00
2023-04-29T09:53:31.628Z,4.93
2023-04-29T09:55:53.147Z,5.03
2023-04-29T09:58:37.522Z,5.65
2023-04-29T10:01:03.180Z,5.55
2023-04-29T10:03:25.915Z,5.35
2023-04-29T10:05:48.103Z,5.55
2023-04-29T10:08:09.878Z,6.68
2023-04-29T10:10:31.421Z,5.80
2023-04-29T10:12:54.445Z,5.90
2023-04-29T10:15:15.854Z,7.72
2023-04-29T10:17:46.030Z,6.20
2023-04-29T10:20:09.305Z,5.80
2023-04-29T10:22:50.114Z,5.95
2023-04-29T10:25:12.421Z,5.30
2023-04-29T10:27:34.970Z,5.03
2023-04-29T10:29:58.479Z,5.57
2023-04-29T10:32:21.873Z,5.35
2023-04-29T10:34:43.854Z,5.72
2023-04-29T10:37:11.479Z,5.22
2023-04-29T10:39:42.815Z,5.63
2023-04-29T10:42:14.468Z,5.22
2023-04-29T10:45:14.383Z,5.72
2023-04-29T10:47:35.888Z,6.18
2023-04-29T10:50:04.795Z,6.13
2023-04-29T10:52:27.813Z,6.13
2023-04-29T10:55:05.286Z,5.97
2023-04-29T10:57:26.845Z,5.78
2023-04-29T10:59:48.356Z,5.75
2023-04-29T11:02:12.937Z,6.03
2023-04-29T11:04:34.410Z,6.25
2023-04-29T11:06:59.052Z,5.95
2023-04-29T11:09:24.543Z,6.05
2023-04-29T11:11:54.399Z,5.40
2023-04-29T11:14:22.650Z,5.05
2023-04-29T11:16:49.581Z,4.82
2023-04-29T11:19:18.176Z,4.30
2023-04-29T11:21:39.637Z,4.95
2023-04-29T11:24:02.325Z,5.03
2023-04-29T11:26:24.329Z,4.53
2023-04-29T11:28:45.980Z,4.70
2023-04-29T11:31:07.590Z,5.15
2023-04-29T11:33:32.542Z,5.22
2023-04-29T11:35:54.644Z,5.32
2023-04-29T11:38:16.203Z,5.07
2023-04-29T11:40:42.819Z,5.60
2023-04-29T11:43:06.073Z,5.57
2023-04-29T11:45:28.137Z,5.72
2023-04-29T11:47:49.679Z,5.78
2023-04-29T11:50:11.788Z,6.03
2023-04-29T11:52:33.683Z,5.60
2023-04-29T11:54:55.423Z,6.50
2023-04-29T11:57:17.346Z,6.63
2023-04-29T11:59:39.059Z,6.13
2023-04-29T12:02:01.018Z,6.70
2023-04-29T12:04:22.906Z,7.20
2023-04-29T12:06:44.549Z,6.85
2023-04-29T12:09:06.174Z,7.03
2023-04-29T12:11:28.991Z,7.10
2023-04-29T12:13:50.498Z,7.30
2023-04-29T12:16:12.601Z,7.00
2023-04-29T12:18:35.011Z,7.73
2023-04-29T12:20:57.002Z,8.00
2023-04-29T12:23:24.084Z,7.70
2023-04-29T12:25:53.842Z,7.40
2023-04-29T12:28:15.727Z,7.53
2023-04-29T12:30:37.705Z,8.20
2023-04-29T12:32:59.444Z,7.90
2023-04-29T12:35:21.918Z,8.23
2023-04-29T12:37:43.427Z,9.43
2023-04-29T12:40:05.494Z,8.50
2023-04-29T12:42:33.188Z,8.00
2023-04-29T12:44:54.807Z,9.90
2023-04-29T12:47:16.968Z,12.17
2023-04-29T12:49:42.173Z,9.07
2023-04-29T12:52:04.298Z,8.93
2023-04-29T12:54:25.884Z,9.17
2023-04-29T12:56:48.552Z,9.03
2023-04-29T12:59:12.273Z,9.23
2023-04-29T13:01:34.338Z,9.70
2023-04-29T13:03:55.968Z,9.60
2023-04-29T13:06:18.069Z,10.67
2023-04-29T13:08:39.486Z,11.20
2023-04-29T13:11:01.134Z,8.80
2023-04-29T13:13:22.558Z,9.50
2023-04-29T13:15:45.115Z,10.33
2023-04-29T13:18:06.795Z,9.93
2023-04-29T13:20:28.639Z,10.23
2023-04-29T13:22:50.597Z,9.13
2023-04-29T13:25:12.396Z,8.53
2023-04-29T13:27:34.310Z,10.20
2023-04-29T13:29:56.800Z,9.37
2023-04-29T13:32:18.906Z,9.90
2023-04-29T13:34:43.374Z,12.52
2023-04-29T13:37:04.885Z,14.70
2023-04-29T13:39:26.326Z,10.63
2023-04-29T13:41:47.762Z,10.57
2023-04-29T13:44:20.847Z,10.55
2023-04-29T13:46:52.199Z,11.27
2023-04-29T13:49:35.298Z,11.68
2023-04-29T13:52:47.394Z,13.32
2023-04-29T13:54:59.240Z,11.43
2023-04-29T13:59:56.404Z,10.30
2023-04-29T14:04:42.411Z,10.35
2023-04-29T14:07:03.989Z,11.43
2023-04-29T14:09:26.342Z,11.23
2023-04-29T14:11:49.065Z,11.18
2023-04-29T14:14:10.519Z,11.88
2023-04-29T14:16:32.284Z,10.75
2023-04-29T14:18:54.204Z,10.15
2023-04-29T14:21:16.256Z,10.95
2023-04-29T14:23:37.787Z,10.55
2023-04-29T14:26:16.636Z,9.45
2023-04-29T14:28:40.820Z,11.50
2023-04-29T14:31:02.331Z,9.40
2023-04-29T14:33:24.011Z,9.75
2023-04-29T14:35:46.314Z,9.13
2023-04-29T14:38:07.977Z,7.97
2023-04-29T14:40:29.542Z,8.63
2023-04-29T14:42:51.023Z,7.32
2023-04-29T14:45:12.648Z,6.93
2023-04-29T14:47:34.129Z,7.05
2023-04-29T14:49:56.419Z,7.13
2023-04-29T14:52:17.917Z,6.30
2023-04-29T14:54:39.419Z,6.63
2023-04-29T14:57:00.842Z,6.38
2023-04-29T14:59:22.358Z,6.60
2023-04-29T15:01:44.097Z,6.25
2023-04-29T15:04:05.913Z,6.18
2023-04-29T15:06:27.802Z,6.25
2023-04-29T15:08:49.375Z,6.10
2023-04-29T15:11:10.970Z,6.47
2023-04-29T15:13:32.530Z,6.30
2023-04-29T15:15:54.157Z,6.53
2023-04-29T15:18:15.650Z,6.38
2023-04-29T15:20:37.595Z,6.78
2023-04-29T15:22:59.078Z,7.05
2023-04-29T15:25:21.515Z,7.10
2023-04-29T15:27:43.465Z,7.20
2023-04-29T15:30:06.693Z,7.10
2023-04-29T15:32:32.223Z,7.25
2023-04-29T15:34:55.510Z,7.55
2023-04-29T15:37:17.117Z,7.50
2023-04-29T15:39:38.582Z,8.02
2023-04-29T15:42:00.221Z,7.47
2023-04-29T15:44:21.663Z,8.00
2023-04-29T15:46:43.144Z,7.70
2023-04-29T15:49:06.578Z,7.38
2023-04-29T15:51:28.051Z,7.47
2023-04-29T15:53:50.973Z,8.07
2023-04-29T15:56:13.347Z,7.27
2023-04-29T15:58:34.948Z,7.77
2023-04-29T16:00:56.449Z,7.90
2023-04-29T16:03:18.109Z,8.43
2023-04-29T16:05:39.908Z,8.07
2023-04-29T16:08:01.366Z,7.83
2023-04-29T16:10:23.533Z,7.77
2023-04-29T16:12:45.101Z,7.93
2023-04-29T16:15:08.032Z,7.27
2023-04-29T16:17:31.274Z,7.47
2023-04-29T16:19:52.997Z,7.47
2023-04-29T16:22:14.641Z,8.20
2023-04-29T16:24:36.121Z,7.63
2023-04-29T16:26:58.945Z,8.00
2023-04-29T16:29:20.529Z,7.40
2023-04-29T16:31:42.022Z,7.27
2023-04-29T16:34:03.524Z,7.83
2023-04-29T16:36:25.468Z,7.73
2023-04-29T16:38:46.963Z,7.57
2023-04-29T16:41:08.418Z,7.43
2023-04-29T16:43:29.923Z,7.23
2023-04-29T16:45:52.096Z,7.40
2023-04-29T16:48:13.729Z,8.23
2023-04-29T16:50:38.668Z,7.73
2023-04-29T16:53:00.095Z,7.50
2023-04-29T16:55:21.537Z,8.07
2023-04-29T16:57:42.997Z,7.80
2023-04-29T17:00:05.390Z,8.00
2023-04-29T17:02:27.947Z,7.70
2023-04-29T17:04:49.628Z,7.97
2023-04-29T17:07:11.094Z,7.83
2023-04-29T17:09:32.631Z,8.20
2023-04-29T17:11:54.172Z,7.37
2023-04-29T17:14:15.658Z,7.80
2023-04-29T17:16:37.394Z,7.73
2023-04-29T17:18:59.388Z,7.47
2023-04-29T17:21:24.690Z,8.63
2023-04-29T17:23:46.325Z,7.43
2023-04-29T17:26:07.817Z,7.07
2023-04-29T17:28:29.428Z,7.30
2023-04-29T17:30:51.843Z,7.23
2023-04-29T17:33:14.144Z,7.60
2023-04-29T17:35:35.716Z,7.20
2023-04-29T17:37:57.289Z,7.13
2023-04-29T17:40:18.861Z,7.27
2023-04-29T17:42:40.609Z,7.13
2023-04-29T17:45:02.166Z,7.10
2023-04-29T17:47:23.685Z,7.17
2023-04-29T17:49:45.306Z,7.33
2023-04-29T17:52:06.802Z,7.07
2023-04-29T17:54:29.228Z,8.60
2023-04-29T17:56:50.794Z,15.97
2023-04-29T17:59:12.429Z,14.40
2023-04-29T18:01:34.911Z,10.53
2023-04-29T18:03:56.456Z,12.83
2023-04-29T18:06:18.381Z,11.13
2023-04-29T18:08:39.922Z,11.30
2023-04-29T18:11:01.371Z,10.87
2023-04-29T18:13:25.173Z,9.97
2023-04-29T18:15:48.762Z,8.57
2023-04-29T18:18:10.283Z,8.10
2023-04-29T18:20:31.896Z,8.40
2023-04-29T18:22:53.346Z,8.33
2023-04-29T18:25:14.964Z,8.77
2023-04-29T18:27:36.633Z,9.23
2023-04-29T18:29:58.116Z,8.50
2023-04-29T18:32:19.591Z,8.70
2023-04-29T18:34:41.047Z,8.67
2023-04-29T18:37:02.495Z,9.17
2023-04-29T18:39:23.946Z,9.57
2023-04-29T18:41:45.537Z,9.03
2023-04-29T18:44:06.942Z,9.80
2023-04-29T18:46:30.515Z,8.40
2023-04-29T18:48:52.087Z,8.27
2023-04-29T18:51:13.611Z,8.83
2023-04-29T18:53:35.214Z,8.70
2023-04-29T18:55:56.830Z,8.40
2023-04-29T18:58:18.289Z,8.23
2023-04-29T19:00:40.514Z,8.30
2023-04-29T19:03:02.065Z,8.57
2023-04-29T19:05:23.827Z,8.77
2023-04-29T19:07:45.424Z,8.80
2023-04-29T19:10:07.772Z,8.23
2023-04-29T19:12:29.207Z,8.30
2023-04-29T19:14:50.689Z,8.40
2023-04-29T19:17:12.134Z,7.77
2023-04-29T19:19:33.860Z,8.20
2023-04-29T19:21:56.381Z,7.77
2023-04-29T19:24:17.915Z,7.43
2023-04-29T19:26:40.337Z,7.47
2023-04-29T19:29:02.053Z,7.83
2023-04-29T19:31:23.552Z,7.83
2023-04-29T19:33:45.169Z,7.97
2023-04-29T19:36:07.412Z,8.40
2023-04-29T19:38:28.859Z,7.70
2023-04-29T19:40:50.399Z,7.47
2023-04-29T19:43:13.309Z,7.47
2023-04-29T19:45:36.147Z,7.83
2023-04-29T19:48:01.891Z,8.63
2023-04-29T19:50:23.569Z,8.00
2023-04-29T19:52:45.092Z,7.60
2023-04-29T19:55:09.017Z,7.10
2023-04-29T19:57:30.586Z,7.67
2023-04-29T19:59:52.387Z,7.80
2023-04-29T20:02:14.165Z,7.27
2023-04-29T20:04:35.768Z,7.83
2023-04-29T20:06:57.206Z,7.83
2023-04-29T20:09:18.683Z,7.57
2023-04-29T20:11:40.134Z,8.23
2023-04-29T20:14:01.577Z,8.33
2023-04-29T20:16:23.643Z,8.27
2023-04-29T20:18:45.644Z,8.60
2023-04-29T20:21:07.092Z,9.93
2023-04-29T20:23:28.663Z,9.13
2023-04-29T20:25:50.781Z,8.40
2023-04-29T20:28:12.339Z,8.50
2023-04-29T20:30:33.793Z,8.67
2023-04-29T20:32:55.303Z,9.00
2023-04-29T20:35:17.696Z,8.67
2023-04-29T20:37:39.183Z,8.30
2023-04-29T20:40:00.675Z,8.53
2023-04-29T20:42:22.262Z,7.53
2023-04-29T20:44:44.057Z,7.60
2023-04-29T20:47:06.007Z,7.47
2023-04-29T20:49:27.498Z,7.50
2023-04-29T20:51:49.382Z,7.43
2023-04-29T20:54:11.140Z,7.70
2023-04-29T20:56:32.596Z,8.60
2023-04-29T20:58:54.109Z,8.60
2023-04-29T21:01:15.652Z,8.47
2023-04-29T21:03:37.150Z,9.00
2023-04-29T21:05:58.681Z,8.80
2023-04-29T21:08:20.196Z,8.60
2023-04-29T21:10:41.611Z,8.40
2023-04-29T21:13:03.636Z,9.20
2023-04-29T21:15:26.796Z,8.13
2023-04-29T21:17:48.448Z,9.03
2023-04-29T21:20:10.265Z,10.20
2023-04-29T21:22:31.699Z,10.60
2023-04-29T21:24:53.163Z,10.73
2023-04-29T21:27:14.667Z,9.40
2023-04-29T21:29:40.744Z,8.70
2023-04-29T21:32:02.426Z,9.27
2023-04-29T21:34:23.949Z,8.77
2023-04-29T21:36:45.386Z,8.13
2023-04-29T21:39:06.910Z,7.90
2023-04-29T21:41:30.894Z,7.37
2023-04-29T21:43:53.229Z,8.23
2023-04-29T21:46:15.772Z,9.97
2023-04-29T21:48:37.335Z,11.53
2023-04-29T21:50:59.945Z,10.43
2023-04-29T21:53:21.385Z,11.60
2023-04-29T21:55:42.867Z,10.03
2023-04-29T21:58:04.707Z,9.73
2023-04-29T22:00:36.640Z,9.90
2023-04-29T22:02:59.269Z,9.50
2023-04-29T22:05:20.766Z,9.43
2023-04-29T22:07:42.816Z,8.47
2023-04-29T22:10:04.586Z,8.10
2023-04-29T22:12:26.471Z,8.30
2023-04-29T22:14:47.971Z,8.43
2023-04-29T22:17:09.436Z,10.00
2023-04-29T22:19:30.894Z,14.23
2023-04-29T22:21:52.315Z,14.57
2023-04-29T22:24:13.794Z,16.03
2023-04-29T22:26:35.585Z,16.13
2023-04-29T22:28:57.367Z,14.43
2023-04-29T22:31:18.914Z,11.93
2023-04-29T22:33:40.482Z,11.50
2023-04-29T22:36:02.347Z,12.70
2023-04-29T22:38:23.906Z,12.13
2023-04-29T22:40:52.062Z,10.23
2023-04-29T22:43:13.633Z,10.93
2023-04-29T22:45:35.132Z,10.07
2023-04-29T22:47:56.613Z,10.47
2023-04-29T22:50:18.272Z,9.27
2023-04-29T22:52:40.065Z,9.77
2023-04-29T22:55:01.998Z,9.93
2023-04-29T22:57:23.517Z,10.13
2023-04-29T22:59:45.114Z,9.40
2023-04-29T23:02:06.583Z,10.57
2023-04-29T23:04:28.108Z,11.00
2023-04-29T23:06:49.665Z,10.77
2023-04-29T23:09:11.729Z,11.03
2023-04-29T23:11:33.211Z,11.07
2023-04-29T23:13:54.818Z,10.87
2023-04-29T23:16:16.493Z,11.10
2023-04-29T23:18:38.041Z,13.10
2023-04-29T23:20:59.463Z,13.30
2023-04-29T23:23:20.943Z,12.77
2023-04-29T23:25:42.818Z,12.23
2023-04-29T23:28:04.355Z,12.33
2023-04-29T23:30:26.207Z,10.60
2023-04-29T23:32:47.724Z,10.80
2023-04-29T23:35:11.462Z,11.30
2023-04-29T23:37:33.027Z,10.73
2023-04-29T23:39:55.684Z,10.20
2023-04-29T23:42:18.420Z,10.93
2023-04-29T23:44:39.938Z,11.03
2023-04-29T23:47:01.371Z,10.93
2023-04-29T23:49:22.829Z,10.73
2023-04-29T23:51:44.324Z,10.70
2023-04-29T23:54:06.026Z,11.30
2023-04-29T23:56:29.301Z,9.97
2023-04-29T23:58:50.802Z,9.07
